»·PEaware :: N3535K KSBA-KOXR

N3535K :: KSBA-KOXR

FLIGHT INFORMATION

Flight Status: Arrived
Operator: Privately registered:
United States
More flights under this callsign
Pilot: Anonymous 31142 (31142)
Aircraft: CESSNA 172 SKYHAWK
(C172)
More flights by this aircraft type
Origin: KSBA Santa Barbara Mun
United States
Destination: KOXR Oxnard
United States
More flights between these airports :: More routes between these airports
Route: +
File this flight plan on PilotEdge
Remarks:
Altitude:
(Current/Filed)
3,500ft
Speed:
(Current/Filed)
120kts
Departed: 21-Aug-20 07:05 PM
Arrived: 21-Aug-20 07:43 PM
Distance/Time
Traveled:
34nm/0:37
Distance/Time
To Go:
Arrived

Flight Plot

Page will automatically refresh every two minutes.


Map Options




Map Legend


Flown Route
Filed Route
Departure Airport
Arrival Airport
Navaid (VOR, NDB)
Fix

Horizontal Profiles

Position Reports

Time Latitude Longitude Heading Altitude Ground
Speed
21-Aug-20 18:46 34.432400 -119.835951 340 14ft 0kts
21-Aug-20 18:47 34.432400 -119.835951 340 14ft 0kts
21-Aug-20 18:48 34.432400 -119.835951 340 14ft 0kts
21-Aug-20 18:49 34.432400 -119.835951 340 14ft 0kts
21-Aug-20 18:50 34.432400 -119.835951 340 14ft 0kts
21-Aug-20 18:51 34.432400 -119.835951 340 14ft 0kts
21-Aug-20 18:52 34.432400 -119.835951 340 14ft 0kts
21-Aug-20 18:53 34.432400 -119.835951 340 14ft 0kts
21-Aug-20 18:54 34.432400 -119.835951 340 14ft 0kts
21-Aug-20 18:55 34.432400 -119.835951 340 14ft 0kts
21-Aug-20 18:56 34.432400 -119.835951 340 14ft 0kts
21-Aug-20 18:57 34.432400 -119.835951 340 14ft 0kts
21-Aug-20 18:58 34.432400 -119.835951 340 14ft 0kts
21-Aug-20 18:59 34.432400 -119.835951 340 14ft 0kts
21-Aug-20 19:00 34.432400 -119.835951 340 14ft 0kts
21-Aug-20 19:00 34.432554 -119.835822 98 14ft 6kts
21-Aug-20 19:02 34.429266 -119.835273 169 11ft 9kts
21-Aug-20 19:03 34.428730 -119.835092 173 11ft 0kts
21-Aug-20 19:03 34.428730 -119.835092 173 11ft 0kts
21-Aug-20 19:05 34.427816 -119.839727 268 24ft 73kts
21-Aug-20 19:05 34.427015 -119.863930 268 480ft 89kts
21-Aug-20 19:06 34.428716 -119.895685 279 550ft 100kts
21-Aug-20 19:08 34.440144 -119.933291 298 649ft 101kts
21-Aug-20 19:08 34.445402 -119.960181 264 1433ft 104kts
21-Aug-20 19:09 34.442766 -119.996147 270 1497ft 108kts
21-Aug-20 19:10 34.443355 -120.033216 274 1459ft 110kts
21-Aug-20 19:11 34.450969 -120.069497 289 1301ft 120kts
21-Aug-20 19:12 34.462203 -120.104384 283 1421ft 101kts
21-Aug-20 19:13 34.466654 -120.135221 238 1752ft 98kts
21-Aug-20 19:14 34.442760 -120.128278 140 2668ft 99kts
21-Aug-20 19:15 34.422136 -120.110297 147 3614ft 104kts
21-Aug-20 19:16 34.391701 -120.087482 150 3536ft 134kts
21-Aug-20 19:17 34.357996 -120.067330 155 3488ft 141kts
21-Aug-20 19:18 34.325272 -120.045100 154 3619ft 135kts
21-Aug-20 19:19 34.293441 -120.023659 128 3839ft 129kts
21-Aug-20 19:20 34.278093 -119.981217 113 3646ft 138kts
21-Aug-20 19:21 34.261652 -119.939738 118 3653ft 135kts
21-Aug-20 19:22 34.247211 -119.897299 99 3617ft 135kts
21-Aug-20 19:23 34.245067 -119.850949 91 3529ft 135kts
21-Aug-20 19:24 34.242449 -119.807054 98 3741ft 133kts
21-Aug-20 19:25 34.238315 -119.761201 90 3535ft 140kts
21-Aug-20 19:26 34.241744 -119.716189 85 3617ft 135kts
21-Aug-20 19:27 34.241706 -119.670988 91 3653ft 132kts
21-Aug-20 19:28 34.240610 -119.626317 91 3737ft 134kts
21-Aug-20 19:29 34.239470 -119.580458 96 3662ft 134kts
21-Aug-20 19:30 34.233890 -119.535409 99 3653ft 134kts
21-Aug-20 19:31 34.229805 -119.489137 98 3515ft 134kts
21-Aug-20 19:32 34.221875 -119.443619 104 2588ft 135kts
21-Aug-20 19:33 34.219432 -119.401012 97 1616ft 108kts
21-Aug-20 19:34 34.212714 -119.365974 108 1613ft 114kts
21-Aug-20 19:35 34.202940 -119.330872 113 1184ft 112kts
21-Aug-20 19:36 34.193555 -119.297079 97 1044ft 101kts
21-Aug-20 19:37 34.190828 -119.264618 93 1215ft 99kts
21-Aug-20 19:38 34.186411 -119.231029 101 1153ft 104kts
21-Aug-20 19:39 34.181944 -119.197393 101 1154ft 102kts
21-Aug-20 19:40 34.185251 -119.171951 8 738ft 84kts
21-Aug-20 19:41 34.200634 -119.184896 272 304ft 78kts
21-Aug-20 19:42 34.200772 -119.204327 267 40ft 24kts
21-Aug-20 19:43 34.199419 -119.207475 266 37ft 0kts

Navigation Log

Ident Type
Flight plan parsing failed, navigation log unavailable